sensor_id;sensor_type;location;lat;lon;timestamp;pressure;altitude;pressure_sealevel;temperature
69545;BMP180;56766;52.260;20.746;2022-08-02T00:00:54;100386.00;;;19.62
69545;BMP180;56766;52.260;20.746;2022-08-02T00:03:20;100390.20;;;19.60
69545;BMP180;56766;52.260;20.746;2022-08-02T00:05:47;100392.60;;;19.60
69545;BMP180;56766;52.260;20.746;2022-08-02T00:08:14;100390.20;;;19.60
69545;BMP180;56766;52.260;20.746;2022-08-02T00:10:41;100391.00;;;19.60
69545;BMP180;56766;52.260;20.746;2022-08-02T00:13:07;100390.40;;;19.60
69545;BMP180;56766;52.260;20.746;2022-08-02T00:15:34;100394.40;;;19.70
69545;BMP180;56766;52.260;20.746;2022-08-02T00:18:01;100385.00;;;19.70
69545;BMP180;56766;52.260;20.746;2022-08-02T00:20:28;100380.80;;;19.70
69545;BMP180;56766;52.260;20.746;2022-08-02T00:22:54;100383.00;;;19.70
69545;BMP180;56766;52.260;20.746;2022-08-02T00:25:21;100381.20;;;19.60
69545;BMP180;56766;52.260;20.746;2022-08-02T00:27:48;100386.40;;;19.60
69545;BMP180;56766;52.260;20.746;2022-08-02T00:30:14;100383.20;;;19.50
69545;BMP180;56766;52.260;20.746;2022-08-02T00:32:41;100387.80;;;19.40
69545;BMP180;56766;52.260;20.746;2022-08-02T00:35:08;100387.80;;;19.32
69545;BMP180;56766;52.260;20.746;2022-08-02T00:37:39;100387.00;;;19.20
69545;BMP180;56766;52.260;20.746;2022-08-02T00:40:08;100395.80;;;19.20
69545;BMP180;56766;52.260;20.746;2022-08-02T00:42:38;100395.80;;;19.10
69545;BMP180;56766;52.260;20.746;2022-08-02T00:45:06;100400.80;;;19.10
69545;BMP180;56766;52.260;20.746;2022-08-02T00:47:33;100400.80;;;19.10
69545;BMP180;56766;52.260;20.746;2022-08-02T00:50:00;100406.20;;;19.10
69545;BMP180;56766;52.260;20.746;2022-08-02T00:52:27;100412.20;;;19.10
69545;BMP180;56766;52.260;20.746;2022-08-02T00:54:54;100410.20;;;19.00
69545;BMP180;56766;52.260;20.746;2022-08-02T00:57:20;100410.20;;;19.00
69545;BMP180;56766;52.260;20.746;2022-08-02T00:59:47;100402.80;;;19.00
69545;BMP180;56766;52.260;20.746;2022-08-02T01:02:14;100403.20;;;19.00
69545;BMP180;56766;52.260;20.746;2022-08-02T01:04:40;100400.80;;;19.00
69545;BMP180;56766;52.260;20.746;2022-08-02T01:07:07;100398.40;;;18.90
69545;BMP180;56766;52.260;20.746;2022-08-02T01:09:34;100397.80;;;18.80
69545;BMP180;56766;52.260;20.746;2022-08-02T01:12:03;100397.00;;;18.80
69545;BMP180;56766;52.260;20.746;2022-08-02T01:14:30;100393.20;;;18.80
69545;BMP180;56766;52.260;20.746;2022-08-02T01:17:11;100397.80;;;18.80
69545;BMP180;56766;52.260;20.746;2022-08-02T01:28:47;100402.00;;;18.90
69545;BMP180;56766;52.260;20.746;2022-08-02T01:31:48;100404.00;;;18.90
69545;BMP180;56766;52.260;20.746;2022-08-02T01:34:33;100405.00;;;18.90
69545;BMP180;56766;52.260;20.746;2022-08-02T01:37:20;100405.80;;;18.80
69545;BMP180;56766;52.260;20.746;2022-08-02T01:39:54;100406.20;;;18.80
69545;BMP180;56766;52.260;20.746;2022-08-02T01:42:25;100406.40;;;18.76
69545;BMP180;56766;52.260;20.746;2022-08-02T01:45:00;100404.00;;;18.70
69545;BMP180;56766;52.260;20.746;2022-08-02T01:47:35;100409.60;;;18.70
69545;BMP180;56766;52.260;20.746;2022-08-02T01:50:07;100406.80;;;18.68
69545;BMP180;56766;52.260;20.746;2022-08-02T01:52:44;100408.80;;;18.60
69545;BMP180;56766;52.260;20.746;2022-08-02T01:55:32;100413.20;;;18.60
69545;BMP180;56766;52.260;20.746;2022-08-02T01:58:04;100416.40;;;18.50
69545;BMP180;56766;52.260;20.746;2022-08-02T02:00:37;100415.40;;;18.50
69545;BMP180;56766;52.260;20.746;2022-08-02T02:03:12;100415.00;;;18.50
69545;BMP180;56766;52.260;20.746;2022-08-02T02:05:41;100416.60;;;18.48
69545;BMP180;56766;52.260;20.746;2022-08-02T02:08:10;100419.40;;;18.40
69545;BMP180;56766;52.260;20.746;2022-08-02T02:10:41;100422.60;;;18.40
69545;BMP180;56766;52.260;20.746;2022-08-02T02:13:15;100422.60;;;18.40
69545;BMP180;56766;52.260;20.746;2022-08-02T02:15:48;100416.60;;;18.40
69545;BMP180;56766;52.260;20.746;2022-08-02T02:18:23;100419.00;;;18.50
69545;BMP180;56766;52.260;20.746;2022-08-02T02:20:51;100420.00;;;18.50
69545;BMP180;56766;52.260;20.746;2022-08-02T02:23:19;100418.20;;;18.50
69545;BMP180;56766;52.260;20.746;2022-08-02T02:25:46;100420.00;;;18.40
69545;BMP180;56766;52.260;20.746;2022-08-02T02:28:25;100411.80;;;18.40
69545;BMP180;56766;52.260;20.746;2022-08-02T02:31:08;100413.00;;;18.30
69545;BMP180;56766;52.260;20.746;2022-08-02T02:33:45;100415.80;;;18.30
69545;BMP180;56766;52.260;20.746;2022-08-02T02:36:17;100415.60;;;18.20
69545;BMP180;56766;52.260;20.746;2022-08-02T02:38:47;100411.80;;;18.20
69545;BMP180;56766;52.260;20.746;2022-08-02T02:41:19;100416.20;;;18.20
69545;BMP180;56766;52.260;20.746;2022-08-02T02:43:49;100411.20;;;18.10
69545;BMP180;56766;52.260;20.746;2022-08-02T02:46:19;100407.40;;;18.10
69545;BMP180;56766;52.260;20.746;2022-08-02T02:48:51;100407.40;;;18.10
69545;BMP180;56766;52.260;20.746;2022-08-02T02:51:22;100402.40;;;18.10
69545;BMP180;56766;52.260;20.746;2022-08-02T02:53:51;100400.60;;;18.00
69545;BMP180;56766;52.260;20.746;2022-08-02T02:56:20;100404.20;;;18.00
69545;BMP180;56766;52.260;20.746;2022-08-02T02:58:47;100402.40;;;17.90
69545;BMP180;56766;52.260;20.746;2022-08-02T03:01:15;100410.20;;;17.84
69545;BMP180;56766;52.260;20.746;2022-08-02T03:04:03;100411.40;;;17.80
69545;BMP180;56766;52.260;20.746;2022-08-02T03:06:35;100418.80;;;17.80
69545;BMP180;56766;52.260;20.746;2022-08-02T03:09:06;100418.60;;;17.70
69545;BMP180;56766;52.260;20.746;2022-08-02T03:11:35;100421.80;;;17.70
69545;BMP180;56766;52.260;20.746;2022-08-02T03:14:07;100419.40;;;17.60
69545;BMP180;56766;52.260;20.746;2022-08-02T03:16:43;100419.40;;;17.60
69545;BMP180;56766;52.260;20.746;2022-08-02T03:19:10;100421.60;;;17.52
69545;BMP180;56766;52.260;20.746;2022-08-02T03:21:37;100418.40;;;17.50
69545;BMP180;56766;52.260;20.746;2022-08-02T03:24:05;100418.00;;;17.56
69545;BMP180;56766;52.260;20.746;2022-08-02T03:26:33;100415.40;;;17.60
69545;BMP180;56766;52.260;20.746;2022-08-02T03:29:00;100418.80;;;17.68
69545;BMP180;56766;52.260;20.746;2022-08-02T03:31:27;100418.00;;;17.66
69545;BMP180;56766;52.260;20.746;2022-08-02T03:33:56;100413.00;;;17.70
69545;BMP180;56766;52.260;20.746;2022-08-02T03:36:28;100420.40;;;17.70
69545;BMP180;56766;52.260;20.746;2022-08-02T03:38:57;100421.40;;;17.70
69545;BMP180;56766;52.260;20.746;2022-08-02T03:41:28;100422.20;;;17.70
69545;BMP180;56766;52.260;20.746;2022-08-02T03:43:57;100422.40;;;17.80
69545;BMP180;56766;52.260;20.746;2022-08-02T03:46:25;100422.40;;;17.80
69545;BMP180;56766;52.260;20.746;2022-08-02T03:48:54;100426.20;;;17.90
69545;BMP180;56766;52.260;20.746;2022-08-02T03:51:22;100428.20;;;17.90
69545;BMP180;56766;52.260;20.746;2022-08-02T03:53:49;100431.80;;;17.96
69545;BMP180;56766;52.260;20.746;2022-08-02T03:56:18;100434.40;;;18.00
69545;BMP180;56766;52.260;20.746;2022-08-02T03:58:44;100444.00;;;18.10
69545;BMP180;56766;52.260;20.746;2022-08-02T04:01:11;100447.00;;;18.20
69545;BMP180;56766;52.260;20.746;2022-08-02T04:03:38;100446.00;;;18.30
69545;BMP180;56766;52.260;20.746;2022-08-02T04:06:05;100449.60;;;18.30
69545;BMP180;56766;52.260;20.746;2022-08-02T04:08:32;100447.80;;;18.40
69545;BMP180;56766;52.260;20.746;2022-08-02T04:10:58;100454.20;;;18.50
69545;BMP180;56766;52.260;20.746;2022-08-02T04:13:44;100464.40;;;18.60
69545;BMP180;56766;52.260;20.746;2022-08-02T04:16:20;100460.20;;;18.70
69545;BMP180;56766;52.260;20.746;2022-08-02T04:18:57;100461.40;;;18.80
69545;BMP180;56766;52.260;20.746;2022-08-02T04:21:34;100459.60;;;18.90
69545;BMP180;56766;52.260;20.746;2022-08-02T04:24:04;100459.80;;;18.90
69545;BMP180;56766;52.260;20.746;2022-08-02T04:26:35;100459.80;;;19.00
69545;BMP180;56766;52.260;20.746;2022-08-02T04:29:04;100456.20;;;19.10
69545;BMP180;56766;52.260;20.746;2022-08-02T04:31:33;100463.60;;;19.20
69545;BMP180;56766;52.260;20.746;2022-08-02T04:34:01;100461.40;;;19.28
69545;BMP180;56766;52.260;20.746;2022-08-02T04:36:29;100467.60;;;19.34
69545;BMP180;56766;52.260;20.746;2022-08-02T04:38:55;100464.20;;;19.40
69545;BMP180;56766;52.260;20.746;2022-08-02T04:41:22;100467.20;;;19.50
69545;BMP180;56766;52.260;20.746;2022-08-02T04:43:49;100477.00;;;19.72
69545;BMP180;56766;52.260;20.746;2022-08-02T04:46:15;100479.40;;;19.92
69545;BMP180;56766;52.260;20.746;2022-08-02T04:48:42;100487.20;;;20.10
69545;BMP180;56766;52.260;20.746;2022-08-02T04:51:08;100485.60;;;20.26
69545;BMP180;56766;52.260;20.746;2022-08-02T04:53:35;100488.40;;;20.40
69545;BMP180;56766;52.260;20.746;2022-08-02T04:56:02;100495.20;;;20.70
69545;BMP180;56766;52.260;20.746;2022-08-02T04:58:29;100494.60;;;21.10
69545;BMP180;56766;52.260;20.746;2022-08-02T05:00:55;100494.40;;;21.46
69545;BMP180;56766;52.260;20.746;2022-08-02T05:03:22;100490.80;;;21.78
69545;BMP180;56766;52.260;20.746;2022-08-02T05:05:49;100494.60;;;21.90
69545;BMP180;56766;52.260;20.746;2022-08-02T05:08:15;100489.00;;;22.18
69545;BMP180;56766;52.260;20.746;2022-08-02T05:10:42;100492.20;;;22.40
69545;BMP180;56766;52.260;20.746;2022-08-02T05:13:09;100497.20;;;22.50
69545;BMP180;56766;52.260;20.746;2022-08-02T05:15:35;100490.80;;;22.50
69545;BMP180;56766;52.260;20.746;2022-08-02T05:18:02;100499.20;;;22.60
69545;BMP180;56766;52.260;20.746;2022-08-02T05:20:29;100502.00;;;22.70
69545;BMP180;56766;52.260;20.746;2022-08-02T05:22:55;100501.00;;;22.90
69545;BMP180;56766;52.260;20.746;2022-08-02T05:25:22;100506.60;;;22.90
69545;BMP180;56766;52.260;20.746;2022-08-02T05:27:49;100505.40;;;22.70
69545;BMP180;56766;52.260;20.746;2022-08-02T05:30:15;100508.40;;;22.46
69545;BMP180;56766;52.260;20.746;2022-08-02T05:32:46;100504.20;;;22.20
69545;BMP180;56766;52.260;20.746;2022-08-02T05:35:19;100507.20;;;22.10
69545;BMP180;56766;52.260;20.746;2022-08-02T05:37:50;100507.80;;;22.20
69545;BMP180;56766;52.260;20.746;2022-08-02T05:40:19;100509.20;;;22.40
69545;BMP180;56766;52.260;20.746;2022-08-02T05:42:45;100519.20;;;22.60
69545;BMP180;56766;52.260;20.746;2022-08-02T05:45:13;100515.20;;;22.80
69545;BMP180;56766;52.260;20.746;2022-08-02T05:47:40;100517.40;;;22.92
69545;BMP180;56766;52.260;20.746;2022-08-02T05:50:08;100522.40;;;23.02
69545;BMP180;56766;52.260;20.746;2022-08-02T05:52:51;100524.60;;;23.20
69545;BMP180;56766;52.260;20.746;2022-08-02T05:55:34;100525.60;;;23.30
69545;BMP180;56766;52.260;20.746;2022-08-02T05:59:11;100524.20;;;23.40
69545;BMP180;56766;52.260;20.746;2022-08-02T06:01:37;100530.00;;;23.40
69545;BMP180;56766;52.260;20.746;2022-08-02T06:04:10;100528.40;;;23.60
69545;BMP180;56766;52.260;20.746;2022-08-02T06:06:43;100519.40;;;23.70
69545;BMP180;56766;52.260;20.746;2022-08-02T06:09:16;100524.40;;;23.80
69545;BMP180;56766;52.260;20.746;2022-08-02T06:11:50;100517.40;;;23.70
69545;BMP180;56766;52.260;20.746;2022-08-02T06:14:19;100522.40;;;23.70
69545;BMP180;56766;52.260;20.746;2022-08-02T06:16:45;100518.80;;;23.70
69545;BMP180;56766;52.260;20.746;2022-08-02T06:19:12;100524.00;;;23.72
69545;BMP180;56766;52.260;20.746;2022-08-02T06:21:41;100528.00;;;23.80
69545;BMP180;56766;52.260;20.746;2022-08-02T06:24:09;100522.60;;;23.80
69545;BMP180;56766;52.260;20.746;2022-08-02T06:26:37;100519.40;;;23.80
69545;BMP180;56766;52.260;20.746;2022-08-02T06:29:04;100532.40;;;23.90
69545;BMP180;56766;52.260;20.746;2022-08-02T06:31:31;100531.60;;;23.82
69545;BMP180;56766;52.260;20.746;2022-08-02T06:33:58;100538.80;;;23.80
69545;BMP180;56766;52.260;20.746;2022-08-02T06:36:51;100542.00;;;23.80
69545;BMP180;56766;52.260;20.746;2022-08-02T06:39:31;100544.00;;;23.70
69545;BMP180;56766;52.260;20.746;2022-08-02T06:42:12;100550.20;;;23.70
69545;BMP180;56766;52.260;20.746;2022-08-02T06:44:39;100551.40;;;23.80
69545;BMP180;56766;52.260;20.746;2022-08-02T06:47:06;100551.60;;;23.92
69545;BMP180;56766;52.260;20.746;2022-08-02T06:49:33;100551.40;;;24.00
69545;BMP180;56766;52.260;20.746;2022-08-02T06:52:02;100550.40;;;24.00
69545;BMP180;56766;52.260;20.746;2022-08-02T06:54:29;100555.60;;;24.10
69545;BMP180;56766;52.260;20.746;2022-08-02T06:56:56;100554.00;;;24.20
69545;BMP180;56766;52.260;20.746;2022-08-02T06:59:23;100555.40;;;24.20
69545;BMP180;56766;52.260;20.746;2022-08-02T07:01:49;100555.60;;;24.30
69545;BMP180;56766;52.260;20.746;2022-08-02T07:04:16;100559.20;;;24.40
69545;BMP180;56766;52.260;20.746;2022-08-02T07:06:43;100561.80;;;24.40
69545;BMP180;56766;52.260;20.746;2022-08-02T07:09:10;100559.60;;;24.46
69545;BMP180;56766;52.260;20.746;2022-08-02T07:11:37;100563.40;;;24.50
69545;BMP180;56766;52.260;20.746;2022-08-02T07:14:03;100556.80;;;24.50
69545;BMP180;56766;52.260;20.746;2022-08-02T07:16:31;100562.00;;;24.40
69545;BMP180;56766;52.260;20.746;2022-08-02T07:18:58;100563.00;;;24.40
69545;BMP180;56766;52.260;20.746;2022-08-02T07:21:24;100558.80;;;24.48
69545;BMP180;56766;52.260;20.746;2022-08-02T07:23:51;100557.80;;;24.50
69545;BMP180;56766;52.260;20.746;2022-08-02T07:26:18;100560.60;;;24.50
69545;BMP180;56766;52.260;20.746;2022-08-02T07:28:44;100564.80;;;24.50
69545;BMP180;56766;52.260;20.746;2022-08-02T07:31:11;100573.80;;;24.50
69545;BMP180;56766;52.260;20.746;2022-08-02T07:33:37;100573.80;;;24.58
69545;BMP180;56766;52.260;20.746;2022-08-02T07:36:05;100569.00;;;24.60
69545;BMP180;56766;52.260;20.746;2022-08-02T07:38:32;100565.00;;;24.60
69545;BMP180;56766;52.260;20.746;2022-08-02T07:40:59;100562.60;;;24.70
69545;BMP180;56766;52.260;20.746;2022-08-02T07:43:25;100566.20;;;24.74
69545;BMP180;56766;52.260;20.746;2022-08-02T07:45:52;100563.40;;;24.80
69545;BMP180;56766;52.260;20.746;2022-08-02T07:48:19;100560.20;;;24.80
69545;BMP180;56766;52.260;20.746;2022-08-02T07:50:45;100563.60;;;24.80
69545;BMP180;56766;52.260;20.746;2022-08-02T07:53:14;100559.20;;;24.82
69545;BMP180;56766;52.260;20.746;2022-08-02T07:55:40;100567.80;;;24.90
69545;BMP180;56766;52.260;20.746;2022-08-02T07:58:11;100562.20;;;25.00
69545;BMP180;56766;52.260;20.746;2022-08-02T08:00:37;100565.40;;;25.10
69545;BMP180;56766;52.260;20.746;2022-08-02T08:03:04;100571.40;;;25.20
69545;BMP180;56766;52.260;20.746;2022-08-02T08:05:31;100567.40;;;25.30
69545;BMP180;56766;52.260;20.746;2022-08-02T08:07:58;100570.40;;;25.40
69545;BMP180;56766;52.260;20.746;2022-08-02T08:10:25;100567.20;;;25.40
69545;BMP180;56766;52.260;20.746;2022-08-02T08:12:51;100569.20;;;25.50
69545;BMP180;56766;52.260;20.746;2022-08-02T08:15:20;100576.60;;;25.70
69545;BMP180;56766;52.260;20.746;2022-08-02T08:17:47;100580.40;;;25.80
69545;BMP180;56766;52.260;20.746;2022-08-02T08:20:14;100581.80;;;25.94
69545;BMP180;56766;52.260;20.746;2022-08-02T08:22:40;100588.80;;;26.10
69545;BMP180;56766;52.260;20.746;2022-08-02T08:25:07;100591.00;;;26.20
69545;BMP180;56766;52.260;20.746;2022-08-02T08:27:34;100592.20;;;26.40
69545;BMP180;56766;52.260;20.746;2022-08-02T08:30:01;100588.00;;;26.50
69545;BMP180;56766;52.260;20.746;2022-08-02T08:32:27;100579.60;;;26.50
69545;BMP180;56766;52.260;20.746;2022-08-02T08:34:54;100588.40;;;26.46
69545;BMP180;56766;52.260;20.746;2022-08-02T08:37:21;100584.00;;;26.50
69545;BMP180;56766;52.260;20.746;2022-08-02T08:39:48;100585.60;;;26.66
69545;BMP180;56766;52.260;20.746;2022-08-02T08:42:15;100581.20;;;26.80
69545;BMP180;56766;52.260;20.746;2022-08-02T08:44:42;100586.20;;;26.90
69545;BMP180;56766;52.260;20.746;2022-08-02T08:47:10;100582.80;;;26.96
69545;BMP180;56766;52.260;20.746;2022-08-02T08:49:44;100590.00;;;27.00
69545;BMP180;56766;52.260;20.746;2022-08-02T08:52:40;100596.80;;;27.20
69545;BMP180;56766;52.260;20.746;2022-08-02T08:55:12;100589.80;;;27.30
69545;BMP180;56766;52.260;20.746;2022-08-02T08:57:42;100586.20;;;27.34
69545;BMP180;56766;52.260;20.746;2022-08-02T09:00:12;100593.60;;;27.40
69545;BMP180;56766;52.260;20.746;2022-08-02T09:02:43;100597.00;;;27.50
69545;BMP180;56766;52.260;20.746;2022-08-02T09:05:13;100593.60;;;27.60
69545;BMP180;56766;52.260;20.746;2022-08-02T09:07:42;100592.80;;;27.60
69545;BMP180;56766;52.260;20.746;2022-08-02T09:13:26;100599.60;;;27.70
69545;BMP180;56766;52.260;20.746;2022-08-02T09:16:02;100594.40;;;27.70
69545;BMP180;56766;52.260;20.746;2022-08-02T09:18:36;100595.60;;;27.80
69545;BMP180;56766;52.260;20.746;2022-08-02T09:21:07;100597.60;;;27.90
69545;BMP180;56766;52.260;20.746;2022-08-02T09:26:07;100601.80;;;28.26
69545;BMP180;56766;52.260;20.746;2022-08-02T09:28:38;100603.40;;;28.40
69545;BMP180;56766;52.260;20.746;2022-08-02T09:31:12;100604.80;;;28.40
69545;BMP180;56766;52.260;20.746;2022-08-02T09:33:43;100607.00;;;28.50
69545;BMP180;56766;52.260;20.746;2022-08-02T09:36:13;100615.20;;;28.60
69545;BMP180;56766;52.260;20.746;2022-08-02T09:39:00;100614.40;;;28.60
69545;BMP180;56766;52.260;20.746;2022-08-02T09:41:34;100616.20;;;28.70
69545;BMP180;56766;52.260;20.746;2022-08-02T09:44:04;100615.80;;;28.50
69545;BMP180;56766;52.260;20.746;2022-08-02T09:46:49;100617.60;;;28.30
69545;BMP180;56766;52.260;20.746;2022-08-02T09:49:18;100617.80;;;28.10
69545;BMP180;56766;52.260;20.746;2022-08-02T09:54:24;100616.80;;;28.18
69545;BMP180;56766;52.260;20.746;2022-08-02T09:56:58;100618.00;;;28.40
69545;BMP180;56766;52.260;20.746;2022-08-02T09:59:27;100611.80;;;28.40
69545;BMP180;56766;52.260;20.746;2022-08-02T10:01:58;100611.80;;;28.58
69545;BMP180;56766;52.260;20.746;2022-08-02T10:04:28;100615.20;;;28.60
69545;BMP180;56766;52.260;20.746;2022-08-02T10:06:55;100608.80;;;28.70
69545;BMP180;56766;52.260;20.746;2022-08-02T10:09:26;100605.20;;;28.80
69545;BMP180;56766;52.260;20.746;2022-08-02T10:11:54;100613.40;;;29.00
69545;BMP180;56766;52.260;20.746;2022-08-02T10:14:22;100618.00;;;29.34
69545;BMP180;56766;52.260;20.746;2022-08-02T10:16:52;100615.00;;;29.70
69545;BMP180;56766;52.260;20.746;2022-08-02T10:19:20;100619.80;;;29.90
69545;BMP180;56766;52.260;20.746;2022-08-02T10:24:29;100615.20;;;29.70
69545;BMP180;56766;52.260;20.746;2022-08-02T10:26:59;100624.20;;;29.30
69545;BMP180;56766;52.260;20.746;2022-08-02T10:29:36;100628.20;;;28.90
69545;BMP180;56766;52.260;20.746;2022-08-02T10:32:37;100620.40;;;28.70
69545;BMP180;56766;52.260;20.746;2022-08-02T10:35:14;100622.40;;;28.78
69545;BMP180;56766;52.260;20.746;2022-08-02T10:37:47;100622.80;;;28.70
69545;BMP180;56766;52.260;20.746;2022-08-02T10:40:14;100620.00;;;28.70
69545;BMP180;56766;52.260;20.746;2022-08-02T10:42:57;100621.20;;;28.70
69545;BMP180;56766;52.260;20.746;2022-08-02T10:45:25;100626.00;;;29.00
69545;BMP180;56766;52.260;20.746;2022-08-02T10:48:07;100623.80;;;29.20
69545;BMP180;56766;52.260;20.746;2022-08-02T10:53:33;100622.80;;;29.84
69545;BMP180;56766;52.260;20.746;2022-08-02T10:56:04;100619.60;;;30.18
69545;BMP180;56766;52.260;20.746;2022-08-02T10:58:33;100616.60;;;30.40
69545;BMP180;56766;52.260;20.746;2022-08-02T11:01:28;100610.80;;;30.10
69545;BMP180;56766;52.260;20.746;2022-08-02T11:03:59;100605.40;;;29.80
69545;BMP180;56766;52.260;20.746;2022-08-02T11:06:26;100614.00;;;29.80
69545;BMP180;56766;52.260;20.746;2022-08-02T11:09:28;100614.20;;;29.80
69545;BMP180;56766;52.260;20.746;2022-08-02T11:12:00;100614.80;;;29.50
69545;BMP180;56766;52.260;20.746;2022-08-02T11:14:30;100615.60;;;29.20
69545;BMP180;56766;52.260;20.746;2022-08-02T11:19:25;100618.80;;;28.80
69545;BMP180;56766;52.260;20.746;2022-08-02T11:22:12;100620.40;;;28.46
69545;BMP180;56766;52.260;20.746;2022-08-02T11:24:41;100619.00;;;28.20
69545;BMP180;56766;52.260;20.746;2022-08-02T11:27:18;100624.00;;;28.00
69545;BMP180;56766;52.260;20.746;2022-08-02T11:29:46;100623.20;;;27.70
69545;BMP180;56766;52.260;20.746;2022-08-02T11:32:24;100625.80;;;27.42
69545;BMP180;56766;52.260;20.746;2022-08-02T11:34:53;100629.00;;;27.22
69545;BMP180;56766;52.260;20.746;2022-08-02T11:37:37;100630.00;;;27.10
69545;BMP180;56766;52.260;20.746;2022-08-02T11:40:17;100630.60;;;27.00
69545;BMP180;56766;52.260;20.746;2022-08-02T11:42:46;100626.00;;;27.00
69545;BMP180;56766;52.260;20.746;2022-08-02T11:45:16;100633.40;;;27.00
69545;BMP180;56766;52.260;20.746;2022-08-02T11:47:53;100636.60;;;27.26
69545;BMP180;56766;52.260;20.746;2022-08-02T11:50:22;100633.00;;;27.66
69545;BMP180;56766;52.260;20.746;2022-08-02T11:52:51;100630.60;;;28.20
69545;BMP180;56766;52.260;20.746;2022-08-02T11:55:31;100632.00;;;28.78
69545;BMP180;56766;52.260;20.746;2022-08-02T11:58:00;100629.80;;;29.20
69545;BMP180;56766;52.260;20.746;2022-08-02T12:00:27;100614.20;;;29.50
69545;BMP180;56766;52.260;20.746;2022-08-02T12:02:53;100613.80;;;29.80
69545;BMP180;56766;52.260;20.746;2022-08-02T12:05:22;100619.00;;;30.04
69545;BMP180;56766;52.260;20.746;2022-08-02T12:07:51;100619.40;;;30.30
69545;BMP180;56766;52.260;20.746;2022-08-02T12:10:22;100618.80;;;30.46
69545;BMP180;56766;52.260;20.746;2022-08-02T12:12:59;100617.80;;;30.74
69545;BMP180;56766;52.260;20.746;2022-08-02T12:15:49;100611.00;;;30.80
69545;BMP180;56766;52.260;20.746;2022-08-02T12:18:21;100613.60;;;31.10
69545;BMP180;56766;52.260;20.746;2022-08-02T12:21:25;100612.00;;;31.34
69545;BMP180;56766;52.260;20.746;2022-08-02T12:23:53;100612.40;;;31.50
69545;BMP180;56766;52.260;20.746;2022-08-02T12:26:19;100609.20;;;31.40
69545;BMP180;56766;52.260;20.746;2022-08-02T12:28:46;100609.20;;;31.30
69545;BMP180;56766;52.260;20.746;2022-08-02T12:31:13;100608.20;;;31.10
69545;BMP180;56766;52.260;20.746;2022-08-02T12:33:51;100608.20;;;31.06
69545;BMP180;56766;52.260;20.746;2022-08-02T12:36:23;100614.60;;;31.20
69545;BMP180;56766;52.260;20.746;2022-08-02T12:38:56;100611.80;;;31.30
69545;BMP180;56766;52.260;20.746;2022-08-02T12:41:26;100617.80;;;31.00
69545;BMP180;56766;52.260;20.746;2022-08-02T12:43:55;100620.60;;;30.70
69545;BMP180;56766;52.260;20.746;2022-08-02T12:46:23;100622.00;;;30.50
69545;BMP180;56766;52.260;20.746;2022-08-02T12:48:50;100618.60;;;30.20
69545;BMP180;56766;52.260;20.746;2022-08-02T12:51:35;100622.60;;;29.98
69545;BMP180;56766;52.260;20.746;2022-08-02T12:54:19;100624.00;;;29.66
69545;BMP180;56766;52.260;20.746;2022-08-02T12:56:48;100632.60;;;29.30
69545;BMP180;56766;52.260;20.746;2022-08-02T12:59:16;100638.40;;;29.00
69545;BMP180;56766;52.260;20.746;2022-08-02T13:02:07;100629.60;;;28.80
69545;BMP180;56766;52.260;20.746;2022-08-02T13:04:36;100632.00;;;28.68
69545;BMP180;56766;52.260;20.746;2022-08-02T13:07:04;100630.00;;;28.60
69545;BMP180;56766;52.260;20.746;2022-08-02T13:09:41;100628.80;;;28.50
69545;BMP180;56766;52.260;20.746;2022-08-02T13:12:13;100626.80;;;28.44
69545;BMP180;56766;52.260;20.746;2022-08-02T13:14:39;100622.80;;;28.50
69545;BMP180;56766;52.260;20.746;2022-08-02T13:17:10;100626.20;;;28.56
69545;BMP180;56766;52.260;20.746;2022-08-02T13:19:37;100629.40;;;28.70
69545;BMP180;56766;52.260;20.746;2022-08-02T13:22:05;100626.40;;;28.80
69545;BMP180;56766;52.260;20.746;2022-08-02T13:24:32;100627.60;;;28.80
69545;BMP180;56766;52.260;20.746;2022-08-02T13:27:00;100631.20;;;28.90
69545;BMP180;56766;52.260;20.746;2022-08-02T13:29:27;100632.60;;;28.90
69545;BMP180;56766;52.260;20.746;2022-08-02T13:31:54;100631.00;;;29.06
69545;BMP180;56766;52.260;20.746;2022-08-02T13:34:20;100631.20;;;29.20
69545;BMP180;56766;52.260;20.746;2022-08-02T13:36:48;100624.40;;;29.32
69545;BMP180;56766;52.260;20.746;2022-08-02T13:39:15;100623.40;;;29.40
69545;BMP180;56766;52.260;20.746;2022-08-02T13:41:41;100634.80;;;29.40
69545;BMP180;56766;52.260;20.746;2022-08-02T13:44:08;100632.20;;;29.40
69545;BMP180;56766;52.260;20.746;2022-08-02T13:46:35;100634.80;;;29.30
69545;BMP180;56766;52.260;20.746;2022-08-02T13:49:05;100630.40;;;29.30
69545;BMP180;56766;52.260;20.746;2022-08-02T13:51:32;100628.40;;;29.40
69545;BMP180;56766;52.260;20.746;2022-08-02T13:53:58;100628.40;;;29.58
69545;BMP180;56766;52.260;20.746;2022-08-02T13:56:25;100628.40;;;29.66
69545;BMP180;56766;52.260;20.746;2022-08-02T13:58:52;100621.40;;;29.60
69545;BMP180;56766;52.260;20.746;2022-08-02T14:01:19;100616.00;;;29.50
69545;BMP180;56766;52.260;20.746;2022-08-02T14:03:45;100615.80;;;29.60
69545;BMP180;56766;52.260;20.746;2022-08-02T14:06:12;100617.40;;;29.70
69545;BMP180;56766;52.260;20.746;2022-08-02T14:08:39;100618.20;;;29.90
69545;BMP180;56766;52.260;20.746;2022-08-02T14:11:06;100622.40;;;29.90
69545;BMP180;56766;52.260;20.746;2022-08-02T14:13:32;100623.20;;;29.90
69545;BMP180;56766;52.260;20.746;2022-08-02T14:15:59;100620.80;;;30.00
69545;BMP180;56766;52.260;20.746;2022-08-02T14:18:27;100615.00;;;29.90
69545;BMP180;56766;52.260;20.746;2022-08-02T14:20:54;100620.00;;;29.70
69545;BMP180;56766;52.260;20.746;2022-08-02T14:23:21;100620.80;;;29.48
69545;BMP180;56766;52.260;20.746;2022-08-02T14:25:48;100623.00;;;29.28
69545;BMP180;56766;52.260;20.746;2022-08-02T14:28:15;100620.80;;;29.10